Victor Harbour, South Australia

10:53 AM ACDT on November 22, 2014 (GMT +1030)
Currency Creek | Change Station
CLOSE
Current Station
Personal Weather Station
Location: Goolwa Beach, SOUTH AUSTRALIA
Elevation: 20 ft
Nearby Weather Stations

Elev 20 ft 35.46 °S, 138.86 °E | Updated 30 seconds ago

Overcast
Overcast
75.2 °F
Feels Like 77 °F
N
16.6
Wind Variable Wind from North
Gusts 19.9 mph

Today
High -- | Low -- °F
--% Chance of Precip.
Yesterday
High -- | Low -- °F
Precip. -- in
5:56 AM 8:06 PM
Waning Crescent, 0% visible
Pressure 29.77 in
Visibility 6.2 miles
Clouds Scattered Clouds 7000 ft
Scattered Clouds 12000 ft
Heat Index 77 °F
Dew Point 63 °F
Humidity 65%
Rainfall 0.00 in
Snow Depth Not available.
UV 3.0 out of 12
Pollen Not available.
Air Quality Not available.
Flu Activity Not available.
SPECI YPAD 220008Z 11006KT 9999 TS SCT070CB SCT120 19/17 Q1008 FM0025 03014KT 9999 -SHRA BKN100 INTER 0008/0200 5000 TSRA SCT100CB

More Conditions Fewer Conditions

Pressure 29.77 in
Visibility 6.2 miles
Clouds Scattered Clouds 7000 ft
Scattered Clouds 12000 ft
Heat Index 77 °F
Dew Point 63 °F
Humidity 65%
Rainfall 0.00 in
Snow Depth Not available.
UV 3.0 out of 12
Pollen Not available.
Air Quality Not available.
Flu Activity Not available.
SPECI YPAD 220008Z 11006KT 9999 TS SCT070CB SCT120 19/17 Q1008 FM0025 03014KT 9999 -SHRA BKN100 INTER 0008/0200 5000 TSRA SCT100CB

More Conditions Fewer Conditions

10-Day Weather Forecast

Almanac

Astronomy

Nov. 22, 2014 Rise Set
Actual Time
Civil Twilight
Nautical Twilight
Astronomical Twilight
Moon
Length of Visible Light
Length of Day
Tomorrow will be .
, % of the Moon is Illuminated

Today's Extremes

Country Highs Country Lows

Community

WunderPhotos

Upload Photos

1,772,744 photos uploaded!

WunderBlogs® & News

Nearby

Air Quality

  Air Quality AQ Index Pollutant
Not available.

Snow Depth

Station Depth Elevation

Earthquake Activity

City Distance Mag. Time & Date
Minimum magnitude displayed is 2.5.

Coastal Water Temperatures

Place Temperature

Nearby Weather Stations